sensor_id;sensor_type;location;lat;lon;timestamp;P1;durP1;ratioP1;P2;durP2;ratioP2
56136;SDS011;42008;52.934;5.884;2023-04-01T00:01:37;11.67;;;9.37;;
56136;SDS011;42008;52.934;5.884;2023-04-01T00:04:03;11.47;;;10.07;;
56136;SDS011;42008;52.934;5.884;2023-04-01T00:06:29;15.83;;;10.27;;
56136;SDS011;42008;52.934;5.884;2023-04-01T00:08:55;13.10;;;10.17;;
56136;SDS011;42008;52.934;5.884;2023-04-01T00:11:21;12.67;;;10.67;;
56136;SDS011;42008;52.934;5.884;2023-04-01T00:13:47;14.83;;;11.13;;
56136;SDS011;42008;52.934;5.884;2023-04-01T00:16:13;12.50;;;10.60;;
56136;SDS011;42008;52.934;5.884;2023-04-01T00:18:39;15.23;;;11.53;;
56136;SDS011;42008;52.934;5.884;2023-04-01T00:21:05;15.87;;;10.60;;
56136;SDS011;42008;52.934;5.884;2023-04-01T00:23:31;13.30;;;10.53;;
56136;SDS011;42008;52.934;5.884;2023-04-01T00:25:58;13.20;;;10.13;;
56136;SDS011;42008;52.934;5.884;2023-04-01T00:28:25;13.17;;;10.10;;
56136;SDS011;42008;52.934;5.884;2023-04-01T00:30:51;13.03;;;10.00;;
56136;SDS011;42008;52.934;5.884;2023-04-01T00:33:17;13.00;;;10.53;;
56136;SDS011;42008;52.934;5.884;2023-04-01T00:35:42;11.83;;;9.90;;
56136;SDS011;42008;52.934;5.884;2023-04-01T00:38:09;11.33;;;9.53;;
56136;SDS011;42008;52.934;5.884;2023-04-01T00:40:43;10.70;;;9.60;;
56136;SDS011;42008;52.934;5.884;2023-04-01T00:43:14;10.97;;;8.73;;
56136;SDS011;42008;52.934;5.884;2023-04-01T00:45:43;12.63;;;9.30;;
56136;SDS011;42008;52.934;5.884;2023-04-01T00:48:26;10.50;;;8.27;;
56136;SDS011;42008;52.934;5.884;2023-04-01T00:53:32;9.70;;;7.40;;
56136;SDS011;42008;52.934;5.884;2023-04-01T00:56:04;8.40;;;6.63;;
56136;SDS011;42008;52.934;5.884;2023-04-01T00:58:35;8.47;;;5.53;;
56136;SDS011;42008;52.934;5.884;2023-04-01T01:01:03;7.30;;;5.60;;
56136;SDS011;42008;52.934;5.884;2023-04-01T01:03:30;6.57;;;5.17;;
56136;SDS011;42008;52.934;5.884;2023-04-01T01:08:44;7.37;;;5.33;;
56136;SDS011;42008;52.934;5.884;2023-04-01T01:11:15;6.03;;;4.90;;
56136;SDS011;42008;52.934;5.884;2023-04-01T01:13:50;7.40;;;4.73;;
56136;SDS011;42008;52.934;5.884;2023-04-01T01:16:29;6.37;;;5.07;;
56136;SDS011;42008;52.934;5.884;2023-04-01T01:19:40;7.50;;;5.43;;
56136;SDS011;42008;52.934;5.884;2023-04-01T01:22:02;8.67;;;5.43;;
56136;SDS011;42008;52.934;5.884;2023-04-01T01:27:26;7.57;;;5.33;;
56136;SDS011;42008;52.934;5.884;2023-04-01T01:29:59;9.80;;;6.50;;
56136;SDS011;42008;52.934;5.884;2023-04-01T01:32:35;9.60;;;6.50;;
56136;SDS011;42008;52.934;5.884;2023-04-01T01:35:23;10.47;;;6.27;;
56136;SDS011;42008;52.934;5.884;2023-04-01T01:38:16;10.47;;;6.23;;
56136;SDS011;42008;52.934;5.884;2023-04-01T01:40:45;8.37;;;6.97;;
56136;SDS011;42008;52.934;5.884;2023-04-01T01:43:14;10.60;;;7.10;;
56136;SDS011;42008;52.934;5.884;2023-04-01T01:45:46;10.50;;;7.00;;
56136;SDS011;42008;52.934;5.884;2023-04-01T01:48:14;9.60;;;7.30;;
56136;SDS011;42008;52.934;5.884;2023-04-01T01:50:41;11.40;;;7.20;;
56136;SDS011;42008;52.934;5.884;2023-04-01T01:53:10;11.23;;;7.07;;
56136;SDS011;42008;52.934;5.884;2023-04-01T01:55:38;8.87;;;7.03;;
56136;SDS011;42008;52.934;5.884;2023-04-01T01:58:09;12.60;;;8.57;;
56136;SDS011;42008;52.934;5.884;2023-04-01T02:00:55;12.10;;;8.07;;
56136;SDS011;42008;52.934;5.884;2023-04-01T02:03:25;14.10;;;8.93;;
56136;SDS011;42008;52.934;5.884;2023-04-01T02:05:55;13.03;;;8.70;;
56136;SDS011;42008;52.934;5.884;2023-04-01T02:08:31;13.40;;;8.83;;
56136;SDS011;42008;52.934;5.884;2023-04-01T02:11:02;11.70;;;9.00;;
56136;SDS011;42008;52.934;5.884;2023-04-01T02:13:52;12.07;;;8.63;;
56136;SDS011;42008;52.934;5.884;2023-04-01T02:16:24;16.37;;;10.03;;
56136;SDS011;42008;52.934;5.884;2023-04-01T02:18:59;15.37;;;9.63;;
56136;SDS011;42008;52.934;5.884;2023-04-01T02:21:28;11.23;;;9.20;;
56136;SDS011;42008;52.934;5.884;2023-04-01T02:23:57;14.13;;;9.17;;
56136;SDS011;42008;52.934;5.884;2023-04-01T02:26:24;13.70;;;8.93;;
56136;SDS011;42008;52.934;5.884;2023-04-01T02:28:51;15.97;;;9.27;;
56136;SDS011;42008;52.934;5.884;2023-04-01T02:31:19;13.67;;;9.30;;
56136;SDS011;42008;52.934;5.884;2023-04-01T02:33:45;11.57;;;9.10;;
56136;SDS011;42008;52.934;5.884;2023-04-01T02:36:13;13.63;;;9.10;;
56136;SDS011;42008;52.934;5.884;2023-04-01T02:38:39;13.57;;;9.70;;
56136;SDS011;42008;52.934;5.884;2023-04-01T02:41:06;11.73;;;9.80;;
56136;SDS011;42008;52.934;5.884;2023-04-01T02:43:32;14.23;;;9.93;;
56136;SDS011;42008;52.934;5.884;2023-04-01T02:45:58;12.60;;;8.77;;
56136;SDS011;42008;52.934;5.884;2023-04-01T02:48:23;11.93;;;9.63;;
56136;SDS011;42008;52.934;5.884;2023-04-01T02:50:49;10.63;;;8.70;;
56136;SDS011;42008;52.934;5.884;2023-04-01T02:53:15;13.10;;;9.17;;
56136;SDS011;42008;52.934;5.884;2023-04-01T02:55:41;13.57;;;9.30;;
56136;SDS011;42008;52.934;5.884;2023-04-01T02:58:07;12.27;;;8.50;;
56136;SDS011;42008;52.934;5.884;2023-04-01T03:00:32;12.03;;;8.33;;
56136;SDS011;42008;52.934;5.884;2023-04-01T03:02:58;10.83;;;8.23;;
56136;SDS011;42008;52.934;5.884;2023-04-01T03:05:24;9.80;;;7.00;;
56136;SDS011;42008;52.934;5.884;2023-04-01T03:07:50;12.57;;;7.63;;
56136;SDS011;42008;52.934;5.884;2023-04-01T03:10:16;7.73;;;4.77;;
56136;SDS011;42008;52.934;5.884;2023-04-01T03:12:41;4.83;;;3.70;;
56136;SDS011;42008;52.934;5.884;2023-04-01T03:15:09;5.10;;;3.10;;
56136;SDS011;42008;52.934;5.884;2023-04-01T03:17:35;3.97;;;2.73;;
56136;SDS011;42008;52.934;5.884;2023-04-01T03:20:01;3.27;;;2.30;;
56136;SDS011;42008;52.934;5.884;2023-04-01T03:22:29;3.37;;;2.30;;
56136;SDS011;42008;52.934;5.884;2023-04-01T03:24:55;3.97;;;2.20;;
56136;SDS011;42008;52.934;5.884;2023-04-01T03:27:21;3.53;;;2.30;;
56136;SDS011;42008;52.934;5.884;2023-04-01T03:29:46;2.67;;;1.60;;
56136;SDS011;42008;52.934;5.884;2023-04-01T03:32:12;2.50;;;1.30;;
56136;SDS011;42008;52.934;5.884;2023-04-01T03:34:37;2.17;;;1.30;;
56136;SDS011;42008;52.934;5.884;2023-04-01T03:37:03;2.20;;;1.30;;
56136;SDS011;42008;52.934;5.884;2023-04-01T03:39:29;3.70;;;1.67;;
56136;SDS011;42008;52.934;5.884;2023-04-01T03:41:55;3.97;;;1.53;;
56136;SDS011;42008;52.934;5.884;2023-04-01T03:44:21;3.00;;;2.00;;
56136;SDS011;42008;52.934;5.884;2023-04-01T03:46:47;3.30;;;2.20;;
56136;SDS011;42008;52.934;5.884;2023-04-01T03:49:12;3.37;;;2.40;;
56136;SDS011;42008;52.934;5.884;2023-04-01T03:51:42;4.00;;;2.70;;
56136;SDS011;42008;52.934;5.884;2023-04-01T03:54:08;5.93;;;3.03;;
56136;SDS011;42008;52.934;5.884;2023-04-01T03:56:34;5.00;;;3.17;;
56136;SDS011;42008;52.934;5.884;2023-04-01T03:59:01;4.83;;;3.50;;
56136;SDS011;42008;52.934;5.884;2023-04-01T04:01:28;6.83;;;4.00;;
56136;SDS011;42008;52.934;5.884;2023-04-01T04:03:54;6.03;;;4.07;;
56136;SDS011;42008;52.934;5.884;2023-04-01T04:06:21;5.13;;;3.70;;
56136;SDS011;42008;52.934;5.884;2023-04-01T04:08:48;5.63;;;4.17;;
56136;SDS011;42008;52.934;5.884;2023-04-01T04:11:14;6.53;;;4.70;;
56136;SDS011;42008;52.934;5.884;2023-04-01T04:13:40;10.63;;;6.10;;
56136;SDS011;42008;52.934;5.884;2023-04-01T04:16:06;8.60;;;5.73;;
56136;SDS011;42008;52.934;5.884;2023-04-01T04:18:33;25.80;;;7.13;;
56136;SDS011;42008;52.934;5.884;2023-04-01T04:20:59;8.10;;;5.50;;
56136;SDS011;42008;52.934;5.884;2023-04-01T04:23:25;9.47;;;5.33;;
56136;SDS011;42008;52.934;5.884;2023-04-01T04:26:00;7.47;;;4.80;;
56136;SDS011;42008;52.934;5.884;2023-04-01T04:28:28;8.63;;;5.67;;
56136;SDS011;42008;52.934;5.884;2023-04-01T04:30:54;9.83;;;6.10;;
56136;SDS011;42008;52.934;5.884;2023-04-01T04:33:20;8.57;;;6.40;;
56136;SDS011;42008;52.934;5.884;2023-04-01T04:35:47;10.03;;;6.90;;
56136;SDS011;42008;52.934;5.884;2023-04-01T04:38:13;9.70;;;6.10;;
56136;SDS011;42008;52.934;5.884;2023-04-01T04:40:40;9.50;;;6.60;;
56136;SDS011;42008;52.934;5.884;2023-04-01T04:43:07;9.60;;;6.50;;
56136;SDS011;42008;52.934;5.884;2023-04-01T04:45:35;11.33;;;6.20;;
56136;SDS011;42008;52.934;5.884;2023-04-01T04:48:00;8.70;;;6.00;;
56136;SDS011;42008;52.934;5.884;2023-04-01T04:50:26;8.27;;;5.77;;
56136;SDS011;42008;52.934;5.884;2023-04-01T04:52:51;10.97;;;6.63;;
56136;SDS011;42008;52.934;5.884;2023-04-01T04:55:17;8.63;;;6.47;;
56136;SDS011;42008;52.934;5.884;2023-04-01T04:57:42;11.33;;;7.47;;
56136;SDS011;42008;52.934;5.884;2023-04-01T05:00:08;13.50;;;9.10;;
56136;SDS011;42008;52.934;5.884;2023-04-01T05:02:37;15.53;;;10.00;;
56136;SDS011;42008;52.934;5.884;2023-04-01T05:05:03;14.43;;;10.10;;
56136;SDS011;42008;52.934;5.884;2023-04-01T05:07:29;15.10;;;10.43;;
56136;SDS011;42008;52.934;5.884;2023-04-01T05:09:55;18.73;;;9.73;;
56136;SDS011;42008;52.934;5.884;2023-04-01T05:12:20;16.37;;;9.17;;
56136;SDS011;42008;52.934;5.884;2023-04-01T05:14:46;16.50;;;10.40;;
56136;SDS011;42008;52.934;5.884;2023-04-01T05:17:12;17.53;;;10.97;;
56136;SDS011;42008;52.934;5.884;2023-04-01T05:19:38;19.13;;;12.27;;
56136;SDS011;42008;52.934;5.884;2023-04-01T05:22:04;24.20;;;14.67;;
56136;SDS011;42008;52.934;5.884;2023-04-01T05:24:30;24.23;;;15.60;;
56136;SDS011;42008;52.934;5.884;2023-04-01T05:26:57;24.47;;;15.47;;
56136;SDS011;42008;52.934;5.884;2023-04-01T05:29:23;22.87;;;15.50;;
56136;SDS011;42008;52.934;5.884;2023-04-01T05:31:49;27.30;;;16.77;;
56136;SDS011;42008;52.934;5.884;2023-04-01T05:34:16;27.43;;;17.40;;
56136;SDS011;42008;52.934;5.884;2023-04-01T05:36:42;25.30;;;16.07;;
56136;SDS011;42008;52.934;5.884;2023-04-01T05:39:08;24.27;;;16.93;;
56136;SDS011;42008;52.934;5.884;2023-04-01T05:41:37;25.10;;;16.87;;
56136;SDS011;42008;52.934;5.884;2023-04-01T05:44:04;26.27;;;16.60;;
56136;SDS011;42008;52.934;5.884;2023-04-01T05:46:30;23.40;;;16.57;;
56136;SDS011;42008;52.934;5.884;2023-04-01T05:48:56;22.60;;;16.77;;
56136;SDS011;42008;52.934;5.884;2023-04-01T05:51:22;22.37;;;16.53;;
56136;SDS011;42008;52.934;5.884;2023-04-01T05:53:48;24.63;;;16.43;;
56136;SDS011;42008;52.934;5.884;2023-04-01T05:56:13;24.67;;;17.03;;
56136;SDS011;42008;52.934;5.884;2023-04-01T05:58:39;26.67;;;16.13;;
56136;SDS011;42008;52.934;5.884;2023-04-01T06:01:09;24.23;;;16.63;;
56136;SDS011;42008;52.934;5.884;2023-04-01T06:03:36;24.33;;;17.00;;
56136;SDS011;42008;52.934;5.884;2023-04-01T06:06:02;24.03;;;16.93;;
56136;SDS011;42008;52.934;5.884;2023-04-01T06:08:30;25.80;;;17.13;;
56136;SDS011;42008;52.934;5.884;2023-04-01T06:19:40;21.27;;;15.57;;
56136;SDS011;42008;52.934;5.884;2023-04-01T06:27:42;22.33;;;16.13;;
56136;SDS011;42008;52.934;5.884;2023-04-01T06:30:27;21.63;;;16.13;;
56136;SDS011;42008;52.934;5.884;2023-04-01T06:33:06;23.65;;;16.50;;
56136;SDS011;42008;52.934;5.884;2023-04-01T06:36:10;22.97;;;15.13;;
56136;SDS011;42008;52.934;5.884;2023-04-01T06:44:22;22.60;;;16.83;;
56136;SDS011;42008;52.934;5.884;2023-04-01T06:55:18;22.30;;;15.90;;
56136;SDS011;42008;52.934;5.884;2023-04-01T06:57:53;22.80;;;16.70;;
56136;SDS011;42008;52.934;5.884;2023-04-01T07:00:27;22.43;;;15.57;;
56136;SDS011;42008;52.934;5.884;2023-04-01T07:03:06;20.83;;;16.38;;
56136;SDS011;42008;52.934;5.884;2023-04-01T07:05:55;25.60;;;17.07;;
56136;SDS011;42008;52.934;5.884;2023-04-01T07:08:25;22.27;;;17.37;;
56136;SDS011;42008;52.934;5.884;2023-04-01T07:10:54;21.73;;;15.73;;
56136;SDS011;42008;52.934;5.884;2023-04-01T07:16:15;24.02;;;16.48;;
56136;SDS011;42008;52.934;5.884;2023-04-01T07:19:02;21.43;;;14.57;;
56136;SDS011;42008;52.934;5.884;2023-04-01T07:24:13;17.03;;;12.57;;
56136;SDS011;42008;52.934;5.884;2023-04-01T07:27:01;16.03;;;11.77;;
56136;SDS011;42008;52.934;5.884;2023-04-01T07:29:27;15.53;;;10.47;;
56136;SDS011;42008;52.934;5.884;2023-04-01T07:34:43;8.73;;;6.93;;
56136;SDS011;42008;52.934;5.884;2023-04-01T07:37:17;8.17;;;6.13;;
56136;SDS011;42008;52.934;5.884;2023-04-01T07:45:36;4.60;;;3.38;;
56136;SDS011;42008;52.934;5.884;2023-04-01T07:50:32;4.60;;;3.80;;
56136;SDS011;42008;52.934;5.884;2023-04-01T07:55:41;5.60;;;4.10;;
56136;SDS011;42008;52.934;5.884;2023-04-01T08:01:12;5.50;;;4.70;;
56136;SDS011;42008;52.934;5.884;2023-04-01T08:12:23;7.23;;;6.30;;
56136;SDS011;42008;52.934;5.884;2023-04-01T08:21:01;9.07;;;8.17;;
56136;SDS011;42008;52.934;5.884;2023-04-01T08:23:43;9.83;;;8.53;;
56136;SDS011;42008;52.934;5.884;2023-04-01T08:26:34;10.50;;;9.10;;
56136;SDS011;42008;52.934;5.884;2023-04-01T08:29:04;13.10;;;10.47;;
56136;SDS011;42008;52.934;5.884;2023-04-01T08:31:43;10.43;;;9.33;;
56136;SDS011;42008;52.934;5.884;2023-04-01T08:34:21;12.63;;;11.30;;
56136;SDS011;42008;52.934;5.884;2023-04-01T08:36:58;12.00;;;10.80;;
56136;SDS011;42008;52.934;5.884;2023-04-01T08:39:32;12.77;;;11.13;;
56136;SDS011;42008;52.934;5.884;2023-04-01T08:53:00;12.97;;;11.67;;
56136;SDS011;42008;52.934;5.884;2023-04-01T08:58:41;13.97;;;12.57;;
56136;SDS011;42008;52.934;5.884;2023-04-01T09:01:18;13.90;;;12.50;;
56136;SDS011;42008;52.934;5.884;2023-04-01T09:12:49;14.40;;;12.90;;
56136;SDS011;42008;52.934;5.884;2023-04-01T09:15:36;13.90;;;12.47;;
56136;SDS011;42008;52.934;5.884;2023-04-01T09:18:30;12.60;;;11.30;;
56136;SDS011;42008;52.934;5.884;2023-04-01T09:29:35;12.17;;;10.73;;
56136;SDS011;42008;52.934;5.884;2023-04-01T09:37:41;13.07;;;11.67;;
56136;SDS011;42008;52.934;5.884;2023-04-01T09:40:16;14.03;;;12.50;;
56136;SDS011;42008;52.934;5.884;2023-04-01T09:45:44;13.80;;;12.37;;
56136;SDS011;42008;52.934;5.884;2023-04-01T09:54:16;15.97;;;13.27;;
56136;SDS011;42008;52.934;5.884;2023-04-01T10:10:47;16.67;;;14.13;;
56136;SDS011;42008;52.934;5.884;2023-04-01T10:24:25;15.70;;;14.10;;
56136;SDS011;42008;52.934;5.884;2023-04-01T10:30:18;16.70;;;14.20;;
56136;SDS011;42008;52.934;5.884;2023-04-01T10:33:32;11.47;;;9.90;;
56136;SDS011;42008;52.934;5.884;2023-04-01T10:47:39;8.23;;;7.33;;
56136;SDS011;42008;52.934;5.884;2023-04-01T10:53:26;10.43;;;6.90;;
56136;SDS011;42008;52.934;5.884;2023-04-01T11:08:05;9.00;;;6.50;;
56136;SDS011;42008;52.934;5.884;2023-04-01T11:13:59;7.13;;;6.23;;
56136;SDS011;42008;52.934;5.884;2023-04-01T11:16:53;7.63;;;6.30;;
56136;SDS011;42008;52.934;5.884;2023-04-01T11:33:03;6.57;;;5.03;;
56136;SDS011;42008;52.934;5.884;2023-04-01T11:35:44;6.33;;;4.60;;
56136;SDS011;42008;52.934;5.884;2023-04-01T11:41:17;7.47;;;5.70;;
56136;SDS011;42008;52.934;5.884;2023-04-01T11:49:34;6.57;;;5.03;;
56136;SDS011;42008;52.934;5.884;2023-04-01T11:54:55;6.27;;;4.83;;
56136;SDS011;42008;52.934;5.884;2023-04-01T11:57:51;7.47;;;5.30;;
56136;SDS011;42008;52.934;5.884;2023-04-01T12:11:17;5.57;;;4.30;;
56136;SDS011;42008;52.934;5.884;2023-04-01T12:16:44;7.03;;;4.20;;
56136;SDS011;42008;52.934;5.884;2023-04-01T12:22:03;6.00;;;4.63;;
56136;SDS011;42008;52.934;5.884;2023-04-01T12:24:45;4.53;;;3.80;;
56136;SDS011;42008;52.934;5.884;2023-04-01T12:30:11;6.27;;;3.77;;
56136;SDS011;42008;52.934;5.884;2023-04-01T12:33:24;4.77;;;3.57;;
56136;SDS011;42008;52.934;5.884;2023-04-01T12:41:18;5.23;;;3.43;;
56136;SDS011;42008;52.934;5.884;2023-04-01T12:44:07;5.13;;;3.30;;
56136;SDS011;42008;52.934;5.884;2023-04-01T12:49:53;3.93;;;3.10;;
56136;SDS011;42008;52.934;5.884;2023-04-01T12:58:26;3.70;;;2.80;;
56136;SDS011;42008;52.934;5.884;2023-04-01T13:01:19;4.33;;;3.23;;
56136;SDS011;42008;52.934;5.884;2023-04-01T13:06:43;4.40;;;3.23;;
56136;SDS011;42008;52.934;5.884;2023-04-01T13:09:34;5.67;;;2.87;;
56136;SDS011;42008;52.934;5.884;2023-04-01T13:28:04;4.33;;;2.87;;
56136;SDS011;42008;52.934;5.884;2023-04-01T13:30:38;4.63;;;2.47;;
56136;SDS011;42008;52.934;5.884;2023-04-01T13:41:35;4.03;;;2.67;;
56136;SDS011;42008;52.934;5.884;2023-04-01T13:44:29;5.50;;;2.63;;
56136;SDS011;42008;52.934;5.884;2023-04-01T13:49:54;3.77;;;2.70;;
56136;SDS011;42008;52.934;5.884;2023-04-01T13:52:44;4.03;;;2.70;;
56136;SDS011;42008;52.934;5.884;2023-04-01T13:55:32;4.87;;;2.40;;
56136;SDS011;42008;52.934;5.884;2023-04-01T14:01:13;3.43;;;2.20;;
56136;SDS011;42008;52.934;5.884;2023-04-01T14:09:30;4.83;;;2.30;;
56136;SDS011;42008;52.934;5.884;2023-04-01T14:18:03;4.22;;;2.30;;
56136;SDS011;42008;52.934;5.884;2023-04-01T14:21:27;4.33;;;2.70;;
56136;SDS011;42008;52.934;5.884;2023-04-01T14:29:19;4.33;;;2.40;;
56136;SDS011;42008;52.934;5.884;2023-04-01T14:31:58;4.00;;;2.50;;
56136;SDS011;42008;52.934;5.884;2023-04-01T14:40:34;4.10;;;2.38;;
56136;SDS011;42008;52.934;5.884;2023-04-01T14:48:34;4.07;;;2.65;;
56136;SDS011;42008;52.934;5.884;2023-04-01T14:51:08;3.77;;;2.47;;
56136;SDS011;42008;52.934;5.884;2023-04-01T14:53:42;8.83;;;5.63;;
56136;SDS011;42008;52.934;5.884;2023-04-01T14:56:16;6.83;;;4.53;;
56136;SDS011;42008;52.934;5.884;2023-04-01T14:59:01;4.07;;;3.00;;
56136;SDS011;42008;52.934;5.884;2023-04-01T15:01:50;5.63;;;2.90;;
56136;SDS011;42008;52.934;5.884;2023-04-01T15:10:05;5.27;;;2.60;;
56136;SDS011;42008;52.934;5.884;2023-04-01T15:13:12;3.90;;;2.70;;
56136;SDS011;42008;52.934;5.884;2023-04-01T15:18:52;3.17;;;2.20;;
56136;SDS011;42008;52.934;5.884;2023-04-01T15:24:06;4.33;;;2.50;;
56136;SDS011;42008;52.934;5.884;2023-04-01T15:27:15;3.47;;;2.40;;
56136;SDS011;42008;52.934;5.884;2023-04-01T15:38:10;3.23;;;2.10;;
56136;SDS011;42008;52.934;5.884;2023-04-01T15:43:27;5.07;;;2.20;;
56136;SDS011;42008;52.934;5.884;2023-04-01T15:57:20;3.50;;;1.87;;
56136;SDS011;42008;52.934;5.884;2023-04-01T16:00:11;3.67;;;2.10;;
56136;SDS011;42008;52.934;5.884;2023-04-01T16:08:51;3.90;;;2.17;;
56136;SDS011;42008;52.934;5.884;2023-04-01T16:16:46;4.97;;;2.47;;
56136;SDS011;42008;52.934;5.884;2023-04-01T16:27:14;5.53;;;2.90;;
56136;SDS011;42008;52.934;5.884;2023-04-01T16:29:52;5.10;;;2.90;;
56136;SDS011;42008;52.934;5.884;2023-04-01T16:38:08;6.80;;;3.33;;
56136;SDS011;42008;52.934;5.884;2023-04-01T16:40:44;7.63;;;3.33;;
56136;SDS011;42008;52.934;5.884;2023-04-01T16:43:28;5.93;;;3.27;;
56136;SDS011;42008;52.934;5.884;2023-04-01T16:59:55;7.57;;;3.93;;
56136;SDS011;42008;52.934;5.884;2023-04-01T17:02:43;7.20;;;3.83;;
56136;SDS011;42008;52.934;5.884;2023-04-01T17:05:15;7.77;;;4.03;;
56136;SDS011;42008;52.934;5.884;2023-04-01T17:07:43;10.27;;;5.03;;
56136;SDS011;42008;52.934;5.884;2023-04-01T17:10:37;6.90;;;4.37;;
56136;SDS011;42008;52.934;5.884;2023-04-01T17:18:32;7.00;;;4.77;;
56136;SDS011;42008;52.934;5.884;2023-04-01T17:26:58;6.97;;;3.97;;
56136;SDS011;42008;52.934;5.884;2023-04-01T17:32:25;6.13;;;4.40;;
56136;SDS011;42008;52.934;5.884;2023-04-01T17:41:00;14.27;;;6.07;;
56136;SDS011;42008;52.934;5.884;2023-04-01T17:43:32;8.77;;;5.23;;
56136;SDS011;42008;52.934;5.884;2023-04-01T17:46:27;7.60;;;5.53;;
56136;SDS011;42008;52.934;5.884;2023-04-01T17:49:23;8.93;;;5.53;;
56136;SDS011;42008;52.934;5.884;2023-04-01T18:03:20;10.57;;;5.60;;
56136;SDS011;42008;52.934;5.884;2023-04-01T18:06:17;10.43;;;5.83;;
56136;SDS011;42008;52.934;5.884;2023-04-01T18:09:01;11.23;;;6.00;;
56136;SDS011;42008;52.934;5.884;2023-04-01T18:22:19;9.50;;;5.13;;
56136;SDS011;42008;52.934;5.884;2023-04-01T18:28:11;10.33;;;5.17;;
56136;SDS011;42008;52.934;5.884;2023-04-01T18:30:49;7.90;;;5.47;;
56136;SDS011;42008;52.934;5.884;2023-04-01T18:33:34;13.87;;;5.70;;
56136;SDS011;42008;52.934;5.884;2023-04-01T18:36:33;8.67;;;5.00;;
56136;SDS011;42008;52.934;5.884;2023-04-01T18:39:11;11.27;;;5.33;;
56136;SDS011;42008;52.934;5.884;2023-04-01T18:41:51;11.77;;;6.33;;
56136;SDS011;42008;52.934;5.884;2023-04-01T18:47:12;12.13;;;5.90;;
56136;SDS011;42008;52.934;5.884;2023-04-01T18:50:06;11.82;;;5.80;;
56136;SDS011;42008;52.934;5.884;2023-04-01T18:52:46;11.77;;;6.50;;
56136;SDS011;42008;52.934;5.884;2023-04-01T18:55:22;10.10;;;5.80;;
56136;SDS011;42008;52.934;5.884;2023-04-01T18:57:58;10.03;;;5.70;;
56136;SDS011;42008;52.934;5.884;2023-04-01T19:00:46;11.32;;;6.70;;
56136;SDS011;42008;52.934;5.884;2023-04-01T19:03:34;18.17;;;7.40;;
56136;SDS011;42008;52.934;5.884;2023-04-01T19:06:15;12.07;;;5.80;;
56136;SDS011;42008;52.934;5.884;2023-04-01T19:08:51;9.03;;;5.87;;
56136;SDS011;42008;52.934;5.884;2023-04-01T19:11:21;8.73;;;5.50;;
56136;SDS011;42008;52.934;5.884;2023-04-01T19:20:59;7.40;;;5.30;;
56136;SDS011;42008;52.934;5.884;2023-04-01T19:26:29;90.87;;;43.13;;
56136;SDS011;42008;52.934;5.884;2023-04-01T19:31:58;81.50;;;44.28;;
56136;SDS011;42008;52.934;5.884;2023-04-01T19:39:50;16.93;;;9.83;;
56136;SDS011;42008;52.934;5.884;2023-04-01T19:42:30;20.10;;;11.20;;
56136;SDS011;42008;52.934;5.884;2023-04-01T19:50:55;12.97;;;7.00;;
56136;SDS011;42008;52.934;5.884;2023-04-01T19:53:28;12.43;;;7.17;;
56136;SDS011;42008;52.934;5.884;2023-04-01T19:56:22;15.87;;;7.70;;
56136;SDS011;42008;52.934;5.884;2023-04-01T19:58:54;17.87;;;7.97;;
56136;SDS011;42008;52.934;5.884;2023-04-01T20:01:38;14.27;;;7.05;;
56136;SDS011;42008;52.934;5.884;2023-04-01T20:04:14;13.53;;;7.07;;
56136;SDS011;42008;52.934;5.884;2023-04-01T20:19:59;15.20;;;8.50;;
56136;SDS011;42008;52.934;5.884;2023-04-01T20:22:34;12.73;;;7.07;;
56136;SDS011;42008;52.934;5.884;2023-04-01T20:25:12;13.43;;;7.45;;
56136;SDS011;42008;52.934;5.884;2023-04-01T20:27:47;17.77;;;8.00;;
56136;SDS011;42008;52.934;5.884;2023-04-01T20:38:19;17.47;;;8.73;;
56136;SDS011;42008;52.934;5.884;2023-04-01T20:41:11;15.00;;;7.27;;
56136;SDS011;42008;52.934;5.884;2023-04-01T20:54:56;13.80;;;7.33;;
56136;SDS011;42008;52.934;5.884;2023-04-01T20:57:33;15.27;;;7.63;;
56136;SDS011;42008;52.934;5.884;2023-04-01T21:11:28;18.03;;;7.57;;
56136;SDS011;42008;52.934;5.884;2023-04-01T21:35:43;14.23;;;7.20;;
56136;SDS011;42008;52.934;5.884;2023-04-01T21:39:08;13.77;;;7.23;;
56136;SDS011;42008;52.934;5.884;2023-04-01T21:55:21;12.13;;;6.20;;
56136;SDS011;42008;52.934;5.884;2023-04-01T22:06:27;12.93;;;5.90;;
56136;SDS011;42008;52.934;5.884;2023-04-01T22:12:34;12.37;;;5.87;;
56136;SDS011;42008;52.934;5.884;2023-04-01T22:14:46;9.93;;;5.30;;
56136;SDS011;42008;52.934;5.884;2023-04-01T22:17:24;16.23;;;6.63;;
56136;SDS011;42008;52.934;5.884;2023-04-01T22:22:31;12.83;;;5.63;;
56136;SDS011;42008;52.934;5.884;2023-04-01T22:25:23;12.33;;;6.07;;
56136;SDS011;42008;52.934;5.884;2023-04-01T22:28:01;15.97;;;6.90;;
56136;SDS011;42008;52.934;5.884;2023-04-01T22:30:53;15.30;;;7.47;;
56136;SDS011;42008;52.934;5.884;2023-04-01T22:33:46;15.97;;;7.33;;
56136;SDS011;42008;52.934;5.884;2023-04-01T22:36:35;13.13;;;6.73;;
56136;SDS011;42008;52.934;5.884;2023-04-01T22:42:47;11.63;;;5.60;;
56136;SDS011;42008;52.934;5.884;2023-04-01T22:48:25;12.07;;;6.03;;
56136;SDS011;42008;52.934;5.884;2023-04-01T22:51:18;14.33;;;5.87;;
56136;SDS011;42008;52.934;5.884;2023-04-01T22:57:00;14.27;;;5.77;;
56136;SDS011;42008;52.934;5.884;2023-04-01T22:59:31;11.50;;;5.80;;
56136;SDS011;42008;52.934;5.884;2023-04-01T23:02:25;13.53;;;5.50;;
56136;SDS011;42008;52.934;5.884;2023-04-01T23:04:55;10.63;;;5.60;;
56136;SDS011;42008;52.934;5.884;2023-04-01T23:07:41;16.27;;;5.47;;
56136;SDS011;42008;52.934;5.884;2023-04-01T23:10:20;12.67;;;5.77;;
56136;SDS011;42008;52.934;5.884;2023-04-01T23:13:16;14.10;;;6.10;;
56136;SDS011;42008;52.934;5.884;2023-04-01T23:15:47;11.03;;;5.80;;
56136;SDS011;42008;52.934;5.884;2023-04-01T23:18:21;13.67;;;5.50;;
56136;SDS011;42008;52.934;5.884;2023-04-01T23:28:39;10.33;;;5.33;;
56136;SDS011;42008;52.934;5.884;2023-04-01T23:34:01;8.73;;;4.97;;
56136;SDS011;42008;52.934;5.884;2023-04-01T23:36:48;9.63;;;5.33;;
56136;SDS011;42008;52.934;5.884;2023-04-01T23:42:00;13.95;;;5.57;;
56136;SDS011;42008;52.934;5.884;2023-04-01T23:44:32;11.85;;;5.47;;
56136;SDS011;42008;52.934;5.884;2023-04-01T23:46:59;11.77;;;5.03;;
56136;SDS011;42008;52.934;5.884;2023-04-01T23:49:28;11.00;;;5.27;;
56136;SDS011;42008;52.934;5.884;2023-04-01T23:52:06;7.33;;;4.37;;
56136;SDS011;42008;52.934;5.884;2023-04-01T23:54:52;10.27;;;4.47;;
56136;SDS011;42008;52.934;5.884;2023-04-01T23:57:30;6.47;;;4.33;;
